Česky Dansk Deutsch English Español Suomi Français Magyar Italiano Nederlands norsk Polski Português svenska Türkçe

 

Het Weer

Pamplona / Noain (Spanje)

22:30, 21 augustus 2016 (GMT)

NWNNE
WE
SWSSE
Home            
Pamplona / Noain San Sebastian / Fuenterrabia Logrono / Agoncillo Biarritz Vitoria Dax Pau Bilbao / Sondica Zaragoza United States Air Force Operated Base In Foreign Country Zaragoza / Aeropuerto Mont-De-Marsan Burgos / Villafria Biscarosse Santander / Parayas Cazaux Calamocha Auch St-Girons Agen Bordeaux / Merignac Toulouse / Francazal Toulouse / Blagnac Bergerac

Om een weerknop op uw website of weblog te plaatsen, copieer onderstaande code en plak die in uw pagina. In het eerste vakje staat HTML-code, in het tweede vakje UBB-code.


Add to Google

Details

Wind speed:3 bf, 9 kn, 4.6 m/s, 10.4 miles/h, 16.7 km/h
Wind direction:NW, 320°
Visibility:Greater than 10000 m, 10 km, 32800 ft, 6.2 miles
Temperature:16°C, 61°F
Dew-point:12°C, 54°F
Atmospheric pressure:1027 hPa, 770.3 mmHg, 30.33 inHg, 1.014 atm
Relative humidity:77.1 %
METAR:LEPP 212230Z AUTO 32009KT 9999 NCD 16/12 Q1027

Snelkoppelingen

Actuele weersinformatie van de hele wereld. Voeg locaties toe met het plus (+) symbool. Deze snelkoppelingen kunnen worden toegevoegd aan Google.

Lid van de Technetium groep

website free tracking
StatCounter NetStat W3C Validator

09-02-2023 12:54:55
astro.technetium.be money.technetium.be phote.technetium.be tafeltennistafel.technetium.be www.ligfiets.net